createdAt,value
2017-10-31T00:01:42.692Z,4.53
2017-10-31T00:04:19.745Z,13.20
2017-10-31T00:06:56.375Z,6.43
2017-10-31T00:09:33.629Z,2.83
2017-10-31T00:12:13.379Z,7.13
2017-10-31T00:14:50.127Z,6.73
2017-10-31T00:17:26.864Z,3.73
2017-10-31T00:20:03.595Z,18.27
2017-10-31T05:23:03.191Z,4.53
2017-10-31T05:25:32.108Z,6.27
2017-10-31T05:28:11.706Z,7.33
2017-10-31T05:30:48.609Z,7.10
2017-10-31T05:33:27.065Z,8.37
2017-10-31T05:36:04.337Z,4.53
2017-10-31T05:38:42.258Z,9.57
2017-10-31T05:41:20.643Z,10.80
2017-10-31T05:43:57.858Z,3.40
2017-10-31T05:46:34.908Z,6.67
2017-10-31T05:49:12.749Z,6.10
2017-10-31T05:51:49.253Z,7.20
2017-10-31T05:54:27.925Z,5.67
2017-10-31T05:57:04.315Z,7.20
2017-10-31T05:59:42.216Z,6.10
2017-10-31T06:02:18.981Z,5.00
2017-10-31T06:04:55.992Z,7.07
2017-10-31T06:07:32.320Z,14.13
2017-10-31T06:10:09.091Z,3.43
2017-10-31T06:12:45.921Z,5.73
2017-10-31T06:15:22.592Z,5.77
2017-10-31T06:17:59.365Z,4.40
2017-10-31T06:20:30.174Z,4.60
2017-10-31T06:23:13.078Z,10.60
2017-10-31T06:25:47.560Z,6.80
2017-10-31T06:28:30.074Z,4.50
2017-10-31T06:31:14.130Z,4.90
2017-10-31T06:33:50.690Z,4.13
2017-10-31T06:36:27.377Z,6.17
2017-10-31T06:39:06.197Z,5.10
2017-10-31T06:41:45.344Z,8.97
2017-10-31T06:44:22.344Z,4.87
2017-10-31T06:47:00.182Z,8.13
2017-10-31T06:49:36.977Z,9.30
2017-10-31T06:52:13.237Z,7.83
2017-10-31T06:54:49.929Z,5.87
2017-10-31T06:57:27.961Z,7.20
2017-10-31T07:00:04.432Z,3.27
2017-10-31T07:02:44.804Z,8.13
2017-10-31T07:05:21.461Z,8.30
2017-10-31T07:07:58.553Z,5.40
2017-10-31T07:10:36.520Z,3.77
2017-10-31T07:13:14.274Z,9.57
2017-10-31T07:15:51.181Z,5.63
2017-10-31T07:18:28.157Z,4.10
2017-10-31T07:21:05.001Z,9.50
2017-10-31T07:23:38.086Z,3.23
2017-10-31T07:26:14.634Z,4.30
2017-10-31T07:28:54.003Z,4.00
2017-10-31T07:31:31.131Z,3.53
2017-10-31T07:34:10.400Z,2.83
2017-10-31T07:36:39.334Z,7.57
2017-10-31T07:39:08.238Z,4.00
2017-10-31T07:41:46.090Z,5.27
2017-10-31T07:44:23.047Z,6.33
2017-10-31T07:47:01.090Z,4.67
2017-10-31T07:49:37.428Z,7.33
2017-10-31T07:52:15.314Z,4.73
2017-10-31T07:54:52.630Z,2.93
2017-10-31T07:57:31.959Z,4.47
2017-10-31T08:00:08.369Z,6.73
2017-10-31T08:02:46.237Z,4.83
2017-10-31T08:05:22.688Z,6.07
2017-10-31T08:07:59.867Z,5.57
2017-10-31T08:10:37.417Z,7.57
2017-10-31T08:13:14.303Z,2.90
2017-10-31T08:15:52.057Z,2.93
2017-10-31T08:18:29.872Z,3.23
2017-10-31T08:21:06.296Z,5.50
2017-10-31T08:23:37.890Z,3.67
2017-10-31T08:26:14.416Z,3.60
2017-10-31T08:28:52.244Z,3.83
2017-10-31T08:31:29.439Z,11.70
2017-10-31T08:34:06.800Z,3.30
2017-10-31T08:36:43.880Z,3.33
2017-10-31T08:39:21.800Z,6.50
2017-10-31T08:41:58.135Z,4.53
2017-10-31T08:44:36.233Z,4.03
2017-10-31T08:47:13.329Z,11.10
2017-10-31T08:49:50.298Z,4.63
2017-10-31T08:52:27.177Z,3.90
2017-10-31T08:55:04.253Z,9.33
2017-10-31T08:57:40.969Z,8.30
2017-10-31T09:00:18.377Z,3.93
2017-10-31T09:02:56.333Z,2.80
2017-10-31T09:05:34.188Z,2.87
2017-10-31T09:08:10.402Z,3.60
2017-10-31T09:10:47.926Z,2.50
2017-10-31T09:13:24.663Z,3.23
2017-10-31T09:16:02.390Z,2.43
2017-10-31T09:18:39.116Z,2.60
2017-10-31T09:21:16.454Z,4.03
2017-10-31T09:23:45.406Z,3.63
2017-10-31T09:26:28.760Z,5.13
2017-10-31T09:29:06.040Z,5.13
2017-10-31T09:31:42.933Z,2.60
2017-10-31T09:34:19.556Z,5.07
2017-10-31T09:36:58.270Z,3.40
2017-10-31T09:39:35.119Z,4.20
2017-10-31T09:42:12.348Z,4.10
2017-10-31T09:44:49.088Z,4.50
2017-10-31T09:47:32.070Z,7.27
2017-10-31T09:50:08.255Z,4.80
2017-10-31T09:52:45.005Z,2.60
2017-10-31T09:55:21.553Z,10.73
2017-10-31T09:58:00.872Z,3.20
2017-10-31T10:00:37.318Z,3.57
2017-10-31T10:03:15.866Z,2.20
2017-10-31T10:05:54.103Z,2.40
2017-10-31T10:08:30.859Z,2.03
2017-10-31T10:11:07.935Z,2.30
2017-10-31T10:13:45.041Z,3.30
2017-10-31T10:16:21.841Z,4.63
2017-10-31T10:19:00.797Z,3.07
2017-10-31T10:21:36.811Z,4.03
2017-10-31T10:24:14.236Z,2.00
2017-10-31T10:26:50.712Z,2.90
2017-10-31T10:29:28.296Z,3.60
2017-10-31T10:32:05.391Z,3.97
2017-10-31T10:34:42.881Z,2.23
2017-10-31T10:37:19.988Z,3.00
2017-10-31T10:39:57.144Z,2.50
2017-10-31T10:42:36.178Z,4.17
2017-10-31T10:45:12.549Z,3.67
2017-10-31T10:47:49.350Z,11.30
2017-10-31T10:50:31.755Z,2.53
2017-10-31T10:53:08.998Z,3.87
2017-10-31T10:55:45.795Z,4.27
2017-10-31T10:58:22.773Z,2.50
2017-10-31T11:01:04.598Z,3.13
2017-10-31T11:03:41.068Z,3.30
2017-10-31T11:06:17.767Z,2.37
2017-10-31T11:08:54.936Z,2.10
2017-10-31T11:11:32.004Z,3.30
2017-10-31T11:14:08.951Z,3.40
2017-10-31T11:16:52.397Z,2.90
2017-10-31T11:19:29.281Z,3.23
2017-10-31T11:21:59.570Z,5.90
2017-10-31T11:24:36.002Z,2.37
2017-10-31T11:27:12.892Z,4.73
2017-10-31T11:29:49.436Z,3.67
2017-10-31T11:32:26.004Z,2.90
2017-10-31T11:35:02.987Z,3.37
2017-10-31T11:37:44.669Z,2.70
2017-10-31T11:40:21.561Z,2.43
2017-10-31T11:43:00.501Z,1.60
2017-10-31T11:45:38.179Z,7.83
2017-10-31T11:48:14.943Z,3.53
2017-10-31T11:50:51.774Z,1.80
2017-10-31T11:53:28.281Z,5.93
2017-10-31T11:56:04.849Z,5.67
2017-10-31T11:58:41.944Z,5.37
2017-10-31T12:01:18.137Z,3.63
2017-10-31T12:03:56.539Z,7.67
2017-10-31T12:06:33.535Z,4.03
2017-10-31T12:09:10.587Z,4.30
2017-10-31T12:11:47.028Z,2.00
2017-10-31T12:14:24.541Z,4.90
2017-10-31T12:17:00.968Z,2.20
2017-10-31T12:19:37.783Z,6.40
2017-10-31T12:22:14.343Z,1.70
2017-10-31T12:24:51.242Z,2.50
2017-10-31T12:27:27.482Z,2.10
2017-10-31T12:30:06.515Z,2.37
2017-10-31T12:32:44.041Z,1.70
2017-10-31T12:35:20.836Z,6.37
2017-10-31T12:37:57.514Z,7.10
2017-10-31T12:40:37.954Z,3.00
2017-10-31T12:43:14.391Z,5.03
2017-10-31T12:45:51.256Z,4.13
2017-10-31T12:48:27.820Z,3.50
2017-10-31T12:51:06.190Z,10.73
2017-10-31T12:53:43.590Z,5.43
2017-10-31T12:56:21.287Z,11.70
2017-10-31T12:58:57.928Z,3.57
2017-10-31T13:01:34.987Z,5.93
2017-10-31T13:04:11.590Z,4.17
2017-10-31T13:06:49.187Z,2.20
2017-10-31T13:09:25.938Z,7.53
2017-10-31T13:12:08.169Z,2.70
2017-10-31T13:14:44.752Z,2.43
2017-10-31T13:17:21.046Z,4.77
2017-10-31T13:19:59.738Z,4.03
2017-10-31T13:22:28.816Z,3.10
2017-10-31T13:25:05.819Z,3.20
2017-10-31T13:27:42.967Z,2.10
2017-10-31T13:30:19.934Z,2.33
2017-10-31T13:32:56.403Z,2.60
2017-10-31T13:35:33.245Z,3.70
2017-10-31T13:38:10.365Z,2.60
2017-10-31T13:40:48.448Z,2.60
2017-10-31T13:43:28.073Z,3.50
2017-10-31T13:46:06.788Z,5.13
2017-10-31T13:48:43.561Z,2.53
2017-10-31T13:51:20.583Z,5.80
2017-10-31T13:53:56.973Z,9.53
2017-10-31T13:56:33.647Z,8.23
2017-10-31T13:59:10.434Z,7.87
2017-10-31T14:01:47.481Z,17.60
2017-10-31T14:04:26.976Z,8.10
2017-10-31T14:07:04.288Z,8.90
2017-10-31T14:09:41.918Z,8.33
2017-10-31T14:12:19.941Z,11.73
2017-10-31T14:14:57.096Z,11.87
2017-10-31T14:17:33.681Z,8.50
2017-10-31T14:20:12.446Z,11.50
2017-10-31T14:22:49.266Z,9.27
2017-10-31T14:25:26.111Z,9.30
2017-10-31T14:28:03.077Z,8.20
2017-10-31T14:30:41.004Z,5.23
2017-10-31T14:33:17.923Z,5.13
2017-10-31T14:35:55.846Z,4.53
2017-10-31T14:38:32.731Z,4.93
2017-10-31T14:41:11.568Z,3.67
2017-10-31T14:43:48.239Z,5.10
2017-10-31T14:46:25.620Z,4.73
2017-10-31T14:49:02.605Z,7.90
2017-10-31T14:51:40.346Z,11.37
2017-10-31T14:54:16.740Z,5.37
2017-10-31T14:56:56.191Z,7.17
2017-10-31T14:59:34.009Z,4.00
2017-10-31T15:02:15.686Z,4.50
2017-10-31T15:04:52.439Z,5.40
2017-10-31T15:07:37.269Z,7.70
2017-10-31T15:10:18.286Z,7.50
2017-10-31T15:12:54.969Z,5.93
2017-10-31T15:15:32.240Z,7.70
2017-10-31T15:18:09.047Z,7.17
2017-10-31T15:20:45.544Z,21.40
2017-10-31T15:23:16.425Z,12.33
2017-10-31T15:25:53.172Z,6.50
2017-10-31T15:28:33.695Z,5.67
2017-10-31T15:31:09.969Z,7.87
2017-10-31T15:33:48.452Z,7.90
2017-10-31T15:36:25.593Z,9.17
2017-10-31T15:39:02.930Z,5.80
2017-10-31T15:41:39.602Z,5.37
2017-10-31T15:44:19.581Z,7.70
2017-10-31T15:46:56.779Z,3.73
2017-10-31T15:49:33.955Z,5.97
2017-10-31T15:52:10.814Z,5.40
2017-10-31T15:54:52.032Z,7.60
2017-10-31T15:57:28.760Z,7.87
2017-10-31T16:00:05.791Z,12.10
2017-10-31T16:02:52.048Z,8.63
2017-10-31T16:05:29.485Z,15.17
2017-10-31T16:08:06.192Z,14.73
2017-10-31T16:10:44.993Z,10.87
2017-10-31T16:13:22.097Z,12.83
2017-10-31T16:15:59.159Z,27.27
2017-10-31T16:18:36.308Z,26.27
2017-10-31T16:21:13.801Z,13.87
2017-10-31T16:23:54.683Z,16.80
2017-10-31T16:26:34.246Z,14.80
2017-10-31T16:29:15.308Z,15.83
2017-10-31T16:31:52.659Z,14.00
2017-10-31T16:34:29.446Z,16.30
2017-10-31T16:37:11.257Z,13.37
2017-10-31T16:39:48.162Z,14.77
2017-10-31T16:42:25.175Z,14.40
2017-10-31T16:45:02.079Z,16.63
2017-10-31T16:47:39.230Z,17.27
2017-10-31T16:50:16.351Z,21.03
2017-10-31T16:52:53.971Z,16.30
2017-10-31T16:55:30.924Z,22.40
2017-10-31T16:58:08.934Z,17.07
2017-10-31T17:00:45.917Z,13.50
2017-10-31T17:03:22.881Z,17.33
2017-10-31T17:05:59.795Z,20.53
2017-10-31T17:08:37.811Z,16.63
2017-10-31T17:11:14.637Z,15.03
2017-10-31T17:13:51.233Z,21.73
2017-10-31T17:16:20.238Z,19.00
2017-10-31T17:18:59.145Z,21.20
2017-10-31T17:21:35.748Z,30.47
2017-10-31T17:27:09.680Z,30.20
2017-10-31T17:29:46.451Z,23.27
2017-10-31T17:32:24.903Z,26.50
2017-10-31T17:35:02.259Z,20.80
2017-10-31T17:37:39.511Z,21.93
2017-10-31T17:40:17.457Z,13.67
2017-10-31T17:42:55.460Z,26.13
2017-10-31T17:45:34.347Z,16.13
2017-10-31T17:48:12.036Z,13.03
2017-10-31T17:50:49.288Z,15.80
2017-10-31T17:53:26.424Z,10.80
2017-10-31T17:56:03.573Z,16.27
2017-10-31T17:58:40.339Z,7.93
2017-10-31T18:01:17.136Z,10.90
2017-10-31T18:03:56.594Z,7.97
2017-10-31T18:06:33.655Z,10.43
2017-10-31T18:09:10.640Z,8.93
2017-10-31T18:11:47.539Z,9.90
2017-10-31T18:14:26.274Z,10.40
2017-10-31T18:17:03.307Z,9.23
2017-10-31T18:19:41.479Z,8.20
2017-10-31T18:22:18.667Z,16.50
2017-10-31T18:24:58.696Z,9.10
2017-10-31T18:27:36.002Z,6.00
2017-10-31T18:30:13.802Z,4.30
2017-10-31T18:32:50.664Z,10.33
2017-10-31T18:35:29.499Z,7.87
2017-10-31T18:38:06.139Z,8.80
2017-10-31T18:40:45.222Z,9.40
2017-10-31T18:43:22.419Z,22.90
2017-10-31T18:45:59.083Z,36.57
2017-10-31T18:48:36.124Z,65.40
2017-10-31T18:51:14.042Z,61.83
2017-10-31T18:53:51.187Z,40.90
2017-10-31T18:56:28.363Z,52.60
2017-10-31T18:59:05.499Z,31.67
2017-10-31T19:01:42.448Z,26.40
2017-10-31T19:04:19.661Z,19.83
2017-10-31T19:06:59.405Z,11.97
2017-10-31T19:09:28.396Z,6.90
2017-10-31T19:12:04.795Z,8.20
2017-10-31T19:14:41.118Z,7.37
2017-10-31T19:17:18.567Z,10.93
2017-10-31T19:19:55.262Z,11.40
2017-10-31T19:22:25.152Z,7.00
2017-10-31T19:25:02.193Z,7.60
2017-10-31T19:27:39.238Z,6.10
2017-10-31T19:30:15.777Z,8.37
2017-10-31T19:32:52.557Z,4.87
2017-10-31T19:35:29.538Z,4.80
2017-10-31T19:38:06.076Z,9.03
2017-10-31T19:40:42.688Z,6.30
2017-10-31T19:43:19.701Z,8.47
2017-10-31T19:46:00.687Z,8.47
2017-10-31T19:48:37.888Z,9.30
2017-10-31T19:51:14.846Z,7.20
2017-10-31T19:53:51.390Z,7.37
2017-10-31T19:56:28.095Z,8.20
2017-10-31T19:59:07.438Z,9.07
2017-10-31T20:01:44.301Z,6.57
2017-10-31T20:04:22.021Z,6.90
2017-10-31T20:06:58.717Z,6.35
2017-10-31T20:09:35.412Z,7.30
2017-10-31T20:12:12.054Z,9.20
2017-10-31T20:14:49.448Z,10.30
2017-10-31T20:17:26.229Z,11.07
2017-10-31T20:20:04.988Z,9.17
2017-10-31T20:22:41.490Z,18.20
2017-10-31T20:25:18.200Z,17.20
2017-10-31T20:27:54.975Z,21.12
2017-10-31T20:30:32.062Z,12.70
2017-10-31T20:33:08.514Z,8.40
2017-10-31T20:35:45.334Z,8.00
2017-10-31T20:38:22.578Z,6.57
2017-10-31T20:40:59.222Z,7.37
2017-10-31T20:43:36.736Z,6.10
2017-10-31T20:46:13.439Z,6.47
2017-10-31T20:48:50.363Z,7.40
2017-10-31T20:51:29.802Z,7.10
2017-10-31T20:54:07.063Z,8.10
2017-10-31T20:56:45.426Z,7.97
2017-10-31T20:59:22.518Z,6.30
2017-10-31T21:02:01.731Z,6.87
2017-10-31T21:04:38.977Z,8.33
2017-10-31T21:07:08.127Z,5.90
2017-10-31T21:09:44.798Z,5.50
2017-10-31T21:12:21.735Z,6.83
2017-10-31T21:14:58.471Z,4.53
2017-10-31T21:17:27.909Z,5.93
2017-10-31T21:20:04.574Z,6.43
2017-10-31T21:22:33.643Z,6.17
2017-10-31T21:25:11.451Z,8.87
2017-10-31T21:27:50.037Z,9.80
2017-10-31T21:30:27.334Z,7.33
2017-10-31T21:35:37.960Z,6.80
2017-10-31T21:38:14.886Z,7.67
2017-10-31T21:40:51.852Z,7.83
2017-10-31T21:43:35.693Z,6.70
2017-10-31T21:46:13.092Z,3.77
2017-10-31T21:48:55.221Z,3.23
2017-10-31T21:51:33.824Z,7.10
2017-10-31T21:54:11.139Z,6.63
2017-10-31T21:56:49.797Z,6.00
2017-10-31T21:59:26.988Z,6.10
2017-10-31T22:02:06.362Z,6.53
2017-10-31T22:04:47.052Z,5.80
2017-10-31T22:07:24.234Z,9.20
2017-10-31T22:10:02.400Z,4.67
2017-10-31T22:12:39.037Z,6.53
2017-10-31T22:15:18.852Z,6.73
2017-10-31T22:17:57.988Z,6.10
2017-10-31T22:20:39.929Z,5.03
2017-10-31T22:23:19.650Z,9.00
2017-10-31T22:25:58.327Z,4.57
2017-10-31T22:28:34.621Z,4.97
2017-10-31T22:31:11.205Z,5.90
2017-10-31T22:33:52.581Z,5.80
2017-10-31T22:36:31.346Z,5.85
2017-10-31T22:39:09.692Z,10.18
2017-10-31T22:41:47.817Z,6.03
2017-10-31T22:44:24.370Z,7.50
2017-10-31T22:47:07.334Z,4.07
2017-10-31T22:49:48.523Z,5.47
2017-10-31T22:52:31.907Z,5.70
2017-10-31T22:55:13.584Z,5.50
2017-10-31T22:57:52.583Z,7.73
2017-10-31T23:00:33.804Z,6.67
2017-10-31T23:03:15.867Z,6.20
2017-10-31T23:05:52.815Z,8.10
2017-10-31T23:08:36.608Z,15.98
2017-10-31T23:11:13.456Z,4.85
2017-10-31T23:13:56.421Z,4.37
2017-10-31T23:16:34.036Z,5.28
2017-10-31T23:19:16.791Z,4.15
2017-10-31T23:21:58.567Z,5.05
2017-10-31T23:30:20.475Z,6.85
2017-10-31T23:35:45.373Z,5.43
2017-10-31T23:38:24.978Z,15.32
2017-10-31T23:41:02.697Z,5.53
2017-10-31T23:43:50.056Z,3.95
2017-10-31T23:46:29.354Z,5.10
2017-10-31T23:49:08.433Z,7.87
2017-10-31T23:51:45.105Z,6.35
2017-10-31T23:54:31.191Z,4.35
2017-10-31T23:57:13.713Z,6.25
2017-10-31T23:59:52.073Z,5.00
